TCA7378 SVBC-SVCS
Flight info
| Callsign | TCA7378 |
|---|---|
| Flight time | 0h 33m |
| Altitude | 22000 |
| Route | ARVEX1 GEMAP W14 USOTI W27 TUY |
| Aircraft | C25B/M-SDE2E3FGHRWXY/LB1 |
Departure
| Time | 2026-04-14 20:28 |
|---|---|
| Airport | General José Antonio Anzoategui International Airport (SVBC) |
Arrival
| Time | 2026-04-14 21:01 |
|---|---|
| Airport | Caracas Óscar Machado Zuloaga International Airport (SVCS) |
| Time | Latitude | Longitude | Altitude | Speed | Heading |
|---|---|---|---|---|---|
| 2026-04-14 20:24 | 10.10758 | -64.68674 | 34 ft | 0 kts | 355° |
| 2026-04-14 20:25 | 10.10773 | -64.68683 | 34 ft | 5 kts | 292° |
| 2026-04-14 20:25 | 10.10772 | -64.68749 | 34 ft | 12 kts | 276° |
| 2026-04-14 20:26 | 10.10767 | -64.68825 | 33 ft | 13 kts | 237° |
| 2026-04-14 20:26 | 10.10684 | -64.68922 | 31 ft | 21 kts | 209° |
| 2026-04-14 20:26 | 10.10544 | -64.68961 | 31 ft | 22 kts | 192° |
| 2026-04-14 20:26 | 10.10391 | -64.68995 | 31 ft | 23 kts | 192° |
| 2026-04-14 20:27 | 10.10230 | -64.69027 | 33 ft | 24 kts | 183° |
| 2026-04-14 20:27 | 10.10158 | -64.69049 | 33 ft | 5 kts | 18° |
| 2026-04-14 20:27 | 10.10170 | -64.69045 | 33 ft | 17 kts | 14° |
| 2026-04-14 20:27 | 10.10686 | -64.68928 | 55 ft | 132 kts | 12° |
| 2026-04-14 20:28 | 10.11716 | -64.68712 | 968 ft | 166 kts | 15° |
| 2026-04-14 20:28 | 10.12935 | -64.68400 | 2193 ft | 195 kts | 14° |
| 2026-04-14 20:28 | 10.14340 | -64.68076 | 3250 ft | 219 kts | 14° |
| 2026-04-14 20:28 | 10.15889 | -64.67713 | 4271 ft | 232 kts | 14° |
| 2026-04-14 20:29 | 10.17501 | -64.67471 | 5426 ft | 241 kts | 359° |
| 2026-04-14 20:29 | 10.19061 | -64.68111 | 6537 ft | 250 kts | 321° |
| 2026-04-14 20:29 | 10.20021 | -64.69577 | 7654 ft | 256 kts | 287° |
| 2026-04-14 20:29 | 10.20056 | -64.71357 | 8734 ft | 259 kts | 261° |
| 2026-04-14 20:30 | 10.19704 | -64.73163 | 9795 ft | 263 kts | 257° |
| 2026-04-14 20:30 | 10.19351 | -64.74992 | 10854 ft | 265 kts | 259° |
| 2026-04-14 20:30 | 10.19072 | -64.76854 | 11904 ft | 268 kts | 260° |
| 2026-04-14 20:30 | 10.18795 | -64.78728 | 12971 ft | 268 kts | 259° |
| 2026-04-14 20:31 | 10.18501 | -64.80600 | 14050 ft | 268 kts | 259° |
| 2026-04-14 20:31 | 10.18212 | -64.82466 | 15129 ft | 267 kts | 259° |
| 2026-04-14 20:31 | 10.17917 | -64.84336 | 16119 ft | 269 kts | 259° |
| 2026-04-14 20:31 | 10.17629 | -64.86194 | 17061 ft | 271 kts | 259° |
| 2026-04-14 20:32 | 10.17332 | -64.88087 | 17985 ft | 273 kts | 259° |
| 2026-04-14 20:32 | 10.17038 | -64.89994 | 18888 ft | 274 kts | 259° |
| 2026-04-14 20:32 | 10.16735 | -64.91920 | 19724 ft | 278 kts | 259° |
| 2026-04-14 20:32 | 10.16433 | -64.93867 | 20504 ft | 282 kts | 259° |
| 2026-04-14 20:33 | 10.16123 | -64.95844 | 21277 ft | 285 kts | 259° |
| 2026-04-14 20:33 | 10.15808 | -64.97854 | 21846 ft | 296 kts | 260° |
| 2026-04-14 20:33 | 10.15471 | -65.00008 | 21867 ft | 321 kts | 260° |
| 2026-04-14 20:34 | 10.14735 | -65.04752 | 21872 ft | 350 kts | 260° |
| 2026-04-14 20:34 | 10.14357 | -65.07147 | 21871 ft | 347 kts | 260° |
| 2026-04-14 20:34 | 10.13977 | -65.09559 | 21871 ft | 345 kts | 260° |
| 2026-04-14 20:34 | 10.13605 | -65.11961 | 21871 ft | 344 kts | 260° |
| 2026-04-14 20:35 | 10.13226 | -65.14350 | 21872 ft | 342 kts | 260° |
| 2026-04-14 20:35 | 10.12849 | -65.16733 | 21871 ft | 341 kts | 260° |
| 2026-04-14 20:35 | 10.12484 | -65.19112 | 21870 ft | 341 kts | 260° |
| 2026-04-14 20:35 | 10.12108 | -65.21484 | 21871 ft | 340 kts | 260° |
| 2026-04-14 20:36 | 10.11734 | -65.23856 | 21871 ft | 340 kts | 260° |
| 2026-04-14 20:36 | 10.11366 | -65.26192 | 21870 ft | 340 kts | 260° |
| 2026-04-14 20:36 | 10.11000 | -65.28553 | 21870 ft | 340 kts | 260° |
| 2026-04-14 20:36 | 10.10622 | -65.30918 | 21870 ft | 339 kts | 260° |
| 2026-04-14 20:37 | 10.10253 | -65.33280 | 21870 ft | 339 kts | 260° |
| 2026-04-14 20:37 | 10.09882 | -65.35641 | 21870 ft | 339 kts | 260° |
| 2026-04-14 20:37 | 10.09510 | -65.37999 | 21870 ft | 339 kts | 260° |
| 2026-04-14 20:37 | 10.09139 | -65.40357 | 21869 ft | 339 kts | 260° |
| 2026-04-14 20:38 | 10.08770 | -65.42686 | 21869 ft | 339 kts | 260° |
| 2026-04-14 20:38 | 10.08400 | -65.45048 | 21870 ft | 339 kts | 260° |
| 2026-04-14 20:38 | 10.08065 | -65.47408 | 21865 ft | 338 kts | 264° |
| 2026-04-14 20:38 | 10.07947 | -65.49797 | 21865 ft | 338 kts | 265° |
| 2026-04-14 20:39 | 10.07754 | -65.52175 | 21866 ft | 338 kts | 264° |
| 2026-04-14 20:39 | 10.07560 | -65.54548 | 21867 ft | 338 kts | 265° |
| 2026-04-14 20:39 | 10.07392 | -65.56932 | 21867 ft | 339 kts | 265° |
| 2026-04-14 20:39 | 10.07227 | -65.59319 | 21866 ft | 339 kts | 265° |
| 2026-04-14 20:40 | 10.07055 | -65.61675 | 21868 ft | 340 kts | 264° |
| 2026-04-14 20:40 | 10.06873 | -65.64065 | 21868 ft | 340 kts | 265° |
| 2026-04-14 20:40 | 10.06706 | -65.66456 | 21869 ft | 340 kts | 265° |
| 2026-04-14 20:40 | 10.06527 | -65.68850 | 21867 ft | 341 kts | 265° |
| 2026-04-14 20:41 | 10.06355 | -65.71248 | 21867 ft | 341 kts | 265° |
| 2026-04-14 20:41 | 10.06174 | -65.73646 | 21871 ft | 341 kts | 265° |
| 2026-04-14 20:41 | 10.06003 | -65.76039 | 21870 ft | 341 kts | 265° |
| 2026-04-14 20:41 | 10.05827 | -65.78443 | 21872 ft | 341 kts | 264° |
| 2026-04-14 20:42 | 10.05650 | -65.80837 | 21873 ft | 341 kts | 265° |
| 2026-04-14 20:42 | 10.05477 | -65.83206 | 21871 ft | 341 kts | 265° |
| 2026-04-14 20:42 | 10.05126 | -65.88000 | 21878 ft | 341 kts | 265° |
| 2026-04-14 20:43 | 10.04947 | -65.90398 | 21876 ft | 341 kts | 264° |
| 2026-04-14 20:43 | 10.04767 | -65.92791 | 21877 ft | 340 kts | 265° |
| 2026-04-14 20:43 | 10.04601 | -65.95185 | 21875 ft | 340 kts | 265° |
| 2026-04-14 20:43 | 10.04415 | -65.97575 | 21878 ft | 340 kts | 264° |
| 2026-04-14 20:44 | 10.04241 | -65.99968 | 21875 ft | 340 kts | 265° |
| 2026-04-14 20:44 | 10.04066 | -66.02333 | 21882 ft | 340 kts | 265° |
| 2026-04-14 20:44 | 10.03890 | -66.04721 | 21884 ft | 340 kts | 265° |
| 2026-04-14 20:44 | 10.03710 | -66.07115 | 21883 ft | 341 kts | 264° |
| 2026-04-14 20:45 | 10.03544 | -66.09512 | 21881 ft | 340 kts | 265° |
| 2026-04-14 20:45 | 10.03403 | -66.11910 | 21884 ft | 340 kts | 265° |
| 2026-04-14 20:45 | 10.03245 | -66.14304 | 21882 ft | 340 kts | 265° |
| 2026-04-14 20:45 | 10.03086 | -66.16701 | 21886 ft | 340 kts | 265° |
| 2026-04-14 20:46 | 10.02930 | -66.19092 | 21888 ft | 339 kts | 265° |
| 2026-04-14 20:46 | 10.02772 | -66.21448 | 21883 ft | 339 kts | 265° |
| 2026-04-14 20:46 | 10.02617 | -66.23835 | 21892 ft | 339 kts | 265° |
| 2026-04-14 20:46 | 10.02621 | -66.26226 | 21882 ft | 340 kts | 274° |
| 2026-04-14 20:47 | 10.03031 | -66.28591 | 21894 ft | 340 kts | 280° |
| 2026-04-14 20:47 | 10.03552 | -66.30937 | 21896 ft | 341 kts | 281° |
| 2026-04-14 20:47 | 10.04072 | -66.33283 | 21894 ft | 340 kts | 281° |
| 2026-04-14 20:47 | 10.04587 | -66.35620 | 21899 ft | 340 kts | 280° |
| 2026-04-14 20:48 | 10.05091 | -66.37967 | 21900 ft | 339 kts | 280° |
| 2026-04-14 20:48 | 10.05600 | -66.40267 | 21902 ft | 340 kts | 281° |
| 2026-04-14 20:48 | 10.06131 | -66.42606 | 21898 ft | 340 kts | 280° |
| 2026-04-14 20:48 | 10.06633 | -66.44957 | 21813 ft | 343 kts | 280° |
| 2026-04-14 20:49 | 10.07159 | -66.47381 | 21171 ft | 360 kts | 281° |
| 2026-04-14 20:49 | 10.07716 | -66.49910 | 20487 ft | 374 kts | 281° |
| 2026-04-14 20:49 | 10.08276 | -66.52432 | 19800 ft | 357 kts | 281° |
| 2026-04-14 20:49 | 10.08802 | -66.54835 | 19148 ft | 341 kts | 280° |
| 2026-04-14 20:50 | 10.09311 | -66.57143 | 18516 ft | 329 kts | 280° |
| 2026-04-14 20:50 | 10.09783 | -66.59348 | 17910 ft | 319 kts | 280° |
| 2026-04-14 20:50 | 10.10266 | -66.61519 | 17320 ft | 312 kts | 280° |
| 2026-04-14 20:50 | 10.10731 | -66.63643 | 16744 ft | 305 kts | 280° |
| 2026-04-14 20:51 | 10.11185 | -66.65724 | 16176 ft | 299 kts | 280° |
| 2026-04-14 20:51 | 10.11633 | -66.67773 | 15624 ft | 296 kts | 280° |
| 2026-04-14 20:51 | 10.12075 | -66.69797 | 15068 ft | 292 kts | 280° |
| 2026-04-14 20:51 | 10.12514 | -66.71798 | 14520 ft | 289 kts | 280° |
| 2026-04-14 20:52 | 10.12943 | -66.73784 | 13976 ft | 286 kts | 280° |
| 2026-04-14 20:52 | 10.13365 | -66.75698 | 13446 ft | 277 kts | 280° |
| 2026-04-14 20:52 | 10.13776 | -66.77577 | 12949 ft | 269 kts | 280° |
| 2026-04-14 20:52 | 10.14175 | -66.79405 | 12444 ft | 262 kts | 280° |
| 2026-04-14 20:53 | 10.14564 | -66.81191 | 11957 ft | 256 kts | 281° |
| 2026-04-14 20:53 | 10.14947 | -66.82942 | 11481 ft | 252 kts | 280° |
| 2026-04-14 20:53 | 10.15320 | -66.84664 | 11011 ft | 248 kts | 281° |
| 2026-04-14 20:53 | 10.15691 | -66.86361 | 10558 ft | 244 kts | 281° |
| 2026-04-14 20:54 | 10.16051 | -66.88002 | 10116 ft | 230 kts | 281° |
| 2026-04-14 20:54 | 10.16381 | -66.89521 | 9692 ft | 217 kts | 281° |
| 2026-04-14 20:54 | 10.16700 | -66.90985 | 9287 ft | 208 kts | 281° |
| 2026-04-14 20:54 | 10.17003 | -66.92389 | 8985 ft | 202 kts | 281° |
| 2026-04-14 20:55 | 10.17310 | -66.93781 | 8631 ft | 203 kts | 282° |
| 2026-04-14 20:55 | 10.17619 | -66.95180 | 8265 ft | 203 kts | 283° |
| 2026-04-14 20:55 | 10.18276 | -66.96428 | 7894 ft | 203 kts | 310° |
| 2026-04-14 20:55 | 10.19332 | -66.97374 | 7523 ft | 202 kts | 330° |
| 2026-04-14 20:56 | 10.20653 | -66.97846 | 7169 ft | 202 kts | 350° |
| 2026-04-14 20:56 | 10.22039 | -66.98062 | 6809 ft | 203 kts | 352° |
| 2026-04-14 20:56 | 10.23410 | -66.98237 | 6437 ft | 199 kts | 2° |
| 2026-04-14 20:56 | 10.24734 | -66.97894 | 6082 ft | 196 kts | 24° |
| 2026-04-14 20:57 | 10.25852 | -66.97149 | 5734 ft | 191 kts | 46° |
| 2026-04-14 20:57 | 10.26631 | -66.96070 | 5388 ft | 189 kts | 64° |
| 2026-04-14 20:57 | 10.26996 | -66.94800 | 5050 ft | 188 kts | 82° |
| 2026-04-14 20:57 | 10.27194 | -66.93486 | 4714 ft | 189 kts | 80° |
| 2026-04-14 20:58 | 10.27412 | -66.92172 | 4378 ft | 189 kts | 81° |
| 2026-04-14 20:58 | 10.27610 | -66.90898 | 4075 ft | 173 kts | 80° |
| 2026-04-14 20:58 | 10.27795 | -66.89756 | 3815 ft | 159 kts | 80° |
| 2026-04-14 20:58 | 10.27952 | -66.88748 | 3585 ft | 135 kts | 79° |
| 2026-04-14 20:59 | 10.28099 | -66.87848 | 3369 ft | 124 kts | 79° |
| 2026-04-14 20:59 | 10.28229 | -66.86993 | 3166 ft | 120 kts | 79° |
| 2026-04-14 20:59 | 10.28368 | -66.86177 | 2973 ft | 115 kts | 78° |
| 2026-04-14 20:59 | 10.28488 | -66.85379 | 2784 ft | 115 kts | 79° |
| 2026-04-14 21:00 | 10.28618 | -66.84578 | 2599 ft | 114 kts | 76° |
| 2026-04-14 21:00 | 10.28724 | -66.83785 | 2466 ft | 114 kts | 84° |
| 2026-04-14 21:00 | 10.28757 | -66.82975 | 2312 ft | 116 kts | 86° |
| 2026-04-14 21:00 | 10.28728 | -66.82181 | 2166 ft | 107 kts | 94° |
| 2026-04-14 21:01 | 10.28688 | -66.81562 | 2167 ft | 47 kts | 95° |
| 2026-04-14 21:01 | 10.28693 | -66.81414 | 2167 ft | 12 kts | 43° |
| 2026-04-14 21:01 | 10.28736 | -66.81459 | 2163 ft | 13 kts | 274° |
| 2026-04-14 21:01 | 10.28741 | -66.81552 | 2167 ft | 14 kts | 274° |
| 2026-04-14 21:02 | 10.28748 | -66.81653 | 2167 ft | 15 kts | 274° |
| 2026-04-14 21:02 | 10.28755 | -66.81763 | 2166 ft | 16 kts | 272° |
| 2026-04-14 21:02 | 10.28763 | -66.81880 | 2166 ft | 17 kts | 272° |
| 2026-04-14 21:02 | 10.28818 | -66.81933 | 2160 ft | 11 kts | 289° |
| 2026-04-14 21:03 | 10.28825 | -66.82015 | 2162 ft | 13 kts | 274° |
| 2026-04-14 21:03 | 10.28815 | -66.82069 | 2166 ft | 4 kts | 190° |
| 2026-04-14 21:03 | 10.28805 | -66.82070 | 2166 ft | 0 kts | 185° |